Latest Weather Observations for Roma

IDQ60801

Issued at 5:32 am EST Wednesday 1 July 2015 (issued every 30 minutes, with the page automatically refreshed every 10 minutes)

About weather observations | Map of weather stations | Latest weather observations for QLD | Other Formats
Station Details ID: 043091 Name: ROMA AIRPORT Lat: -26.55 Lon: 148.77 Height: 307.38 m
Data from the previous 72 hours. | See also: Recent months at Roma
Date/Time
EST
Temp
°C
App
Temp
°C
Dew
Point
Rel
Hum
%
Delta-T
°C
Wind Press
QNH
hPa
Press
MSL
hPa
Rain
since 9 am
mm
Dir
 
Spd
km/h
Gust
km/h
Spd
kts
Gust
kts
01/05:30am 10.0 9.4 8.8 92 0.6 S 2 7 1 4 1025.1 1025.0 0.0
01/05:19am 10.0 8.6 8.8 92 0.6 S 6 9 3 5 1025.0 1024.9 0.0
01/05:00am 10.6 10.5 9.4 92 0.6 CALM 0 0 0 0 1025.0 1024.9 0.0
01/04:30am 10.6 9.4 9.4 92 0.6 WNW 6 7 3 4 1024.6 1024.5 0.0
01/04:00am 11.3 9.4 10.4 94 0.5 WNW 11 13 6 7 1024.5 1024.4 0.0
01/03:30am 10.6 8.0 9.5 93 0.6 WNW 13 15 7 8 1024.6 1024.5 0.0
01/03:00am 10.5 9.2 9.3 92 0.6 N 6 6 3 3 1024.4 1024.3 0.0
01/02:30am 11.0 9.7 9.8 92 0.6 NNW 7 9 4 5 1024.6 1024.5 0.0
01/02:00am 10.9 8.8 9.7 92 0.6 NNW 11 11 6 6 1024.8 1024.7 0.0
01/01:30am 11.0 9.8 9.4 90 0.8 N 6 9 3 5 1025.2 1025.1 0.0
01/01:00am 11.9 10.9 10.3 90 0.8 E 6 7 3 4 1025.3 1025.2 0.0
01/12:30am 12.3 10.8 10.5 89 0.9 SE 9 11 5 6 1025.5 1025.4 0.0
 
Date/Time
EST
Temp
°C
App
Temp
°C
Dew
Point
Rel
Hum
%
Delta-T
°C
Wind Press
QNH
hPa
Press
MSL
hPa
Rain
since 9 am
mm
Dir
 
Spd
km/h
Gust
km/h
Spd
kts
Gust
kts
30/11:30pm 13.5 11.6 11.7 89 1.0 SSE 13 17 7 9 1026.3 1026.3 0.0
30/11:00pm 13.8 12.0 12.0 89 1.0 S 13 17 7 9 1027.0 1027.0 0.0
30/10:30pm 14.0 11.0 11.9 87 1.1 S 19 26 10 14 1026.8 1026.8 0.0
30/10:00pm 14.3 11.1 11.8 85 1.4 S 20 28 11 15 1027.1 1027.1 0.0
30/09:30pm 14.6 11.6 11.9 84 1.5 SSW 19 26 10 14 1027.5 1027.4 0.0
30/09:00pm 15.0 11.8 11.8 81 1.7 SSW 20 32 11 17 1026.8 1026.8 0.0
30/08:30pm 14.5 13.3 10.3 76 2.2 WNW 7 9 4 5 1026.4 1026.4 0.0
30/08:00pm 14.5 13.4 10.5 77 2.1 NNW 7 7 4 4 1026.4 1026.4 0.0
30/07:30pm 14.0 13.3 10.0 77 2.1 NNE 4 6 2 3 1025.9 1025.8 0.0
30/07:00pm 13.9 12.2 9.9 77 2.1 NNE 9 11 5 6 1025.5 1025.4 0.0
30/06:30pm 14.1 14.1 9.7 75 2.3 CALM 0 0 0 0 1025.3 1025.2 0.0
30/06:00pm 14.4 13.7 8.4 67 3.0 NNW 2 4 1 2 1025.0 1024.9 0.0
30/05:30pm 16.9 15.6 9.1 60 4.1 N 6 7 3 4 1024.7 1024.6 0.0
30/05:00pm 18.7 16.8 8.9 53 5.2 N 9 13 5 7 1024.2 1024.1 0.0
30/04:30pm 19.4 17.5 9.0 51 5.5 N 9 13 5 7 1024.0 1023.9 0.0
30/04:00pm 19.6 17.4 9.5 52 5.4 N 11 15 6 8 1024.1 1024.0 0.0
30/03:30pm 19.5 17.6 9.1 51 5.6 N 9 15 5 8 1024.0 1023.9 0.0
30/03:00pm 19.6 18.0 10.3 55 5.1 NE 9 13 5 7 1024.3 1024.2 0.0
30/02:30pm 19.9 17.6 10.6 55 5.1 NE 13 17 7 9 1024.2 1024.1 0.0
30/02:00pm 19.8 17.6 10.8 56 4.9 NNE 13 20 7 11 1024.2 1024.1 0.0
30/01:30pm 20.2 17.0 11.4 57 4.9 NNE 19 24 10 13 1024.3 1024.2 0.0
30/01:00pm 19.6 16.4 11.4 59 4.6 NNE 19 24 10 13 1025.0 1024.9 0.0
30/12:30pm 19.4 16.0 11.2 59 4.6 NNE 20 28 11 15 1025.5 1025.4 0.0
30/12:00pm 19.9 16.7 11.4 58 4.7 NNE 19 28 10 15 1026.1 1026.1 0.0
30/11:30am 19.0 16.3 11.8 63 4.0 NNE 17 24 9 13 1026.5 1026.5 0.0
30/11:00am 18.1 14.8 11.7 66 3.5 NNE 20 28 11 15 1026.9 1026.9 0.0
30/10:30am 17.7 13.4 11.9 69 3.2 NNE 26 33 14 18 1026.9 1026.9 0.0
30/10:00am 17.1 13.1 11.8 71 2.9 NNE 24 30 13 16 1027.5 1027.4 0.0
30/09:30am 16.6 14.0 11.9 74 2.6 NNE 17 22 9 12 1027.7 1027.6 0.0
30/09:00am 16.1 14.2 11.9 76 2.3 NNE 13 19 7 10 1027.8 1027.7 0.0
30/08:30am 15.1 13.2 11.9 81 1.8 NE 13 15 7 8 1027.8 1027.7 0.0
30/08:00am 14.6 11.5 11.6 82 1.6 NE 19 28 10 15 1027.4 1027.3 0.0
30/07:30am 14.2 11.1 11.5 84 1.5 NE 19 28 10 15 1026.9 1026.9 0.0
30/07:00am 14.0 11.6 11.5 85 1.3 ENE 15 22 8 12 1026.6 1026.6 0.0
30/06:30am 13.3 12.2 10.8 85 1.3 ENE 7 9 4 5 1026.3 1026.3 0.0
30/06:00am 13.9 11.9 11.6 86 1.2 ENE 13 15 7 8 1026.0 1025.9 0.0
30/05:30am 13.8 12.2 11.5 86 1.2 NE 11 15 6 8 1026.1 1026.1 0.0
30/05:00am 13.1 11.8 11.2 88 1.0 NE 9 11 5 6 1026.3 1026.3 0.0
30/04:30am 12.3 10.7 10.2 87 1.1 E 9 11 5 6 1026.1 1026.1 0.0
30/04:00am 12.3 10.6 10.0 86 1.2 E 9 9 5 5 1026.3 1026.3 0.0
30/03:30am 13.1 12.2 10.6 85 1.3 E 6 7 3 4 1026.5 1026.5 0.0
30/03:00am 12.8 11.6 10.2 84 1.4 ESE 7 9 4 5 1026.4 1026.4 0.0
30/02:30am 12.9 11.7 10.4 85 1.3 ESE 7 9 4 5 1026.3 1026.3 0.0
30/02:00am 13.0 11.5 10.5 85 1.3 E 9 11 5 6 1026.4 1026.4 0.0
30/01:30am 13.0 12.0 10.2 83 1.5 E 6 7 3 4 1026.7 1026.7 0.0
30/01:00am 12.8 12.8 9.8 82 1.6 CALM 0 6 0 3 1026.9 1026.9 0.0
30/12:30am 12.8 11.7 10.0 83 1.5 E 6 7 3 4 1026.8 1026.8 0.0
30/12:00am 13.0 11.2 9.6 80 1.8 E 9 11 5 6 1026.9 1026.9 0.0
 
Date/Time
EST
Temp
°C
App
Temp
°C
Dew
Point
Rel
Hum
%
Delta-T
°C
Wind Press
QNH
hPa
Press
MSL
hPa
Rain
since 9 am
mm
Dir
 
Spd
km/h
Gust
km/h
Spd
kts
Gust
kts
29/11:30pm 13.4 12.5 9.3 76 2.1 E 4 9 2 5 1027.1 1027.1 0.0
29/11:00pm 13.8 12.4 9.6 76 2.2 ENE 7 7 4 4 1027.4 1027.3 0.0
29/10:30pm 13.9 12.1 9.3 74 2.4 E 9 11 5 6 1027.1 1027.1 0.0
29/10:00pm 14.4 13.0 9.4 72 2.6 ESE 7 9 4 5 1027.2 1027.2 0.0
29/09:30pm 14.3 13.1 9.5 73 2.5 E 6 7 3 4 1027.0 1027.0 0.0
29/09:00pm 14.2 12.8 9.4 73 2.5 E 7 9 4 5 1027.1 1027.1 0.0
29/08:30pm 13.7 12.2 9.2 74 2.3 E 7 9 4 5 1026.9 1026.9 0.0
29/08:00pm 15.6 14.6 10.2 70 2.9 SE 6 7 3 4 1026.8 1026.8 0.0
29/07:30pm 14.0 12.1 9.0 72 2.6 E 9 11 5 6 1026.4 1026.4 0.0
29/07:00pm 15.5 14.3 9.4 67 3.2 SE 6 9 3 5 1026.5 1026.5 0.0
29/06:30pm 16.4 14.3 9.6 64 3.6 SSE 11 13 6 7 1026.3 1026.3 0.0
29/06:00pm 17.6 15.7 9.0 57 4.5 ESE 9 9 5 5 1026.1 1026.1 0.0
29/05:30pm 18.1 16.0 8.4 53 5.1 E 9 11 5 6 1025.8 1025.7 0.0
29/05:00pm 21.0 18.3 8.9 46 6.5 E 13 17 7 9 1025.5 1025.4 0.0
29/04:30pm 20.7 19.2 9.0 47 6.3 E 7 9 4 5 1025.4 1025.3 0.0
29/04:00pm 22.6 19.9 9.0 42 7.3 E 13 20 7 11 1025.3 1025.2 0.0
29/03:30pm 22.0 18.4 8.2 41 7.4 E 17 20 9 11 1025.1 1025.0 0.0
29/03:00pm 22.3 18.1 8.4 41 7.4 ESE 20 28 11 15 1025.1 1025.0 0.0
29/02:30pm 22.6 19.5 8.7 41 7.5 E 15 22 8 12 1025.3 1025.2 0.0
29/02:00pm 22.3 18.1 8.1 40 7.5 E 20 32 11 17 1025.5 1025.4 0.0
29/01:30pm 24.1 20.8 9.7 40 8.0 ENE 17 24 9 13 1025.7 1025.6 0.0
29/01:00pm 23.2 18.5 9.2 41 7.6 NE 24 33 13 18 1026.3 1026.3 0.0
29/12:30pm 22.6 20.3 11.7 50 6.2 ENE 15 24 8 13 1027.0 1027.0 0.0
29/12:00pm 21.4 19.1 11.7 54 5.5 NE 15 20 8 11 1027.9 1027.8 0.0
29/11:30am 20.7 18.1 11.9 57 5.0 ENE 17 24 9 13 1029.1 1029.1 0.0
29/11:00am 20.2 17.8 12.7 62 4.3 ENE 17 26 9 14 1029.6 1029.6 0.0
29/10:30am 19.0 16.6 12.5 66 3.7 ENE 17 24 9 13 1030.1 1030.1 0.0
29/10:00am 17.6 15.9 12.3 71 3.0 ENE 13 19 7 10 1030.2 1030.2 0.0
29/09:30am 15.3 14.2 12.1 81 1.8 SE 9 15 5 8 1030.4 1030.4 0.0
29/09:00am 13.6 12.5 11.8 89 1.0 SSE 9 11 5 6 1030.2 1030.2 0.0
29/08:30am 11.8 10.9 10.5 92 0.7 SSE 6 7 3 4 1030.2 1030.2 0.0
29/08:00am 11.1 10.1 10.3 95 0.4 WSW 6 7 3 4 1030.2 1030.2 0.0
29/07:58am 11.0 10.0 10.2 95 0.4 WSW 6 7 3 4 1030.2 1030.2 0.0
29/07:30am 9.8 8.4 9.0 95 0.4 S 6 6 3 3 1029.6 1029.6 0.0
29/07:00am 8.2 5.9 7.3 94 0.4 SSE 9 11 5 6 1029.2 1029.2 0.0
29/06:45am 7.7 5.3 6.8 94 0.4 SSE 9 11 5 6 1029.1 1029.1 0.0
29/06:30am 8.4 6.1 7.5 94 0.4 SSE 9 11 5 6 1029.1 1029.1 0.0
29/06:00am 8.6 6.7 7.7 94 0.4 SE 7 9 4 5 1028.9 1028.9 0.0
29/05:30am 8.0 6.1 6.8 92 0.6 ESE 6 7 3 4 1028.8 1028.8 0.0
29/05:17am 7.8 5.7 6.7 93 0.5 ESE 7 7 4 4 1028.7 1028.6 0.0
29/05:00am 9.3 7.8 8.4 94 0.4 ESE 6 7 3 4 1028.5 1028.4 0.0
29/04:30am 8.9 7.6 7.8 93 0.5 SSE 4 7 2 4 1028.3 1028.2 0.0
29/04:00am 9.9 8.3 8.8 93 0.5 SE 7 9 4 5 1028.2 1028.1 0.0
29/03:30am 10.9 9.8 10.0 94 0.5 SE 6 7 3 4 1028.2 1028.1 0.0
29/03:03am 11.4 10.5 10.5 94 0.5 ESE 6 7 3 4 1028.3 1028.2 0.0
29/03:00am 11.4 10.5 10.5 94 0.5 ESE 6 7 3 4 1028.3 1028.2 0.0
29/02:31am 11.1 10.0 10.0 93 0.6 E 6 7 3 4 1028.4 1028.3 0.0
29/02:30am 10.9 9.6 9.8 93 0.6 E 7 7 4 4 1028.4 1028.3 0.0
29/02:11am 10.4 10.3 9.3 93 0.6 CALM 0 0 0 0 1028.4 1028.3 0.0
29/02:00am 11.5 11.7 10.6 94 0.5 CALM 0 0 0 0 1028.5 1028.4 0.0
29/01:30am 10.8 9.6 9.7 93 0.6 ESE 6 7 3 4 1028.6 1028.5 0.0
29/01:27am 10.9 10.1 9.8 93 0.6 E 4 7 2 4 1028.6 1028.5 0.0
29/01:02am 11.6 11.7 10.3 92 0.7 CALM 0 0 0 0 1028.7 1028.6 0.0
29/01:00am 11.7 11.9 10.4 92 0.7 CALM 0 0 0 0 1028.7 1028.6 0.0
29/12:30am 12.0 11.1 10.6 91 0.7 ESE 6 7 3 4 1028.7 1028.6 0.0
29/12:00am 13.0 13.4 11.4 90 0.9 CALM 0 0 0 0 1029.0 1029.0 0.0
 
Date/Time
EST
Temp
°C
App
Temp
°C
Dew
Point
Rel
Hum
%
Delta-T
°C
Wind Press
QNH
hPa
Press
MSL
hPa
Rain
since 9 am
mm
Dir
 
Spd
km/h
Gust
km/h
Spd
kts
Gust
kts
28/11:30pm 13.0 13.4 11.2 89 1.0 CALM 0 0 0 0 1029.1 1029.1 0.0
28/11:00pm 13.1 12.1 11.0 87 1.1 ESE 7 9 4 5 1029.2 1029.2 0.0
28/10:30pm 13.3 11.5 10.8 85 1.3 SE 11 13 6 7 1029.4 1029.4 0.0
28/10:00pm 14.0 12.3 11.2 83 1.5 SSE 11 13 6 7 1029.3 1029.3 0.0
28/09:30pm 15.1 13.2 11.7 80 1.9 SE 13 17 7 9 1029.3 1029.3 0.0
28/09:00pm 15.8 13.1 11.6 76 2.3 SE 17 20 9 11 1029.1 1029.1 0.0
28/08:30pm 15.9 13.9 11.5 75 2.4 SSE 13 17 7 9 1029.2 1029.2 0.0
28/08:00pm 15.4 13.6 11.0 75 2.4 SSE 11 13 6 7 1029.1 1029.1 0.0
28/07:30pm 15.6 13.4 10.8 73 2.6 SSE 13 15 7 8 1028.7 1028.6 0.0
28/07:00pm 16.1 14.2 10.6 70 2.9 SSE 11 13 6 7 1028.4 1028.3 0.0
28/06:30pm 16.5 13.9 10.6 68 3.2 SSE 15 15 8 8 1028.1 1028.0 0.0
28/06:00pm 17.0 15.0 10.1 64 3.7 SSE 11 13 6 7 1027.7 1027.6 0.0
28/05:30pm 18.3 15.8 9.6 57 4.7 SSE 13 17 7 9 1027.4 1027.3 0.0
28/05:00pm 20.4 17.6 9.9 51 5.7 SSE 15 20 8 11 1027.2 1027.2 0.0
28/04:30pm 21.3 17.8 10.2 49 6.1 SSE 19 24 10 13 1027.1 1027.1 0.0
28/04:00pm 21.3 18.0 9.5 47 6.4 SE 17 22 9 12 1027.1 1027.1 0.0
28/03:30pm 22.2 18.5 10.0 46 6.7 SSE 20 32 11 17 1027.0 1027.0 0.0
28/03:00pm 22.5 19.1 9.3 43 7.2 SSE 17 24 9 13 1027.0 1027.0 0.0
28/02:30pm 22.0 18.5 8.9 43 7.1 SE 17 22 9 12 1027.1 1027.1 0.0
28/02:00pm 21.0 17.2 8.9 46 6.5 SSE 19 24 10 13 1027.2 1027.2 0.0
28/01:30pm 21.6 18.4 9.8 47 6.5 SE 17 26 9 14 1027.7 1027.6 0.0
28/01:00pm 22.0 19.0 10.5 48 6.4 SSE 17 20 9 11 1028.2 1028.1 0.0
28/12:30pm 21.5 18.6 10.9 51 5.9 SE 17 28 9 15 1028.8 1028.8 0.0
28/12:00pm 20.5 17.8 10.3 52 5.6 SE 15 20 8 11 1029.2 1029.2 0.0
28/11:30am 20.4 18.4 11.6 57 4.9 SE 13 22 7 12 1029.8 1029.8 0.0
28/11:00am 19.0 16.9 11.3 61 4.2 SE 13 20 7 11 1030.3 1030.3 0.0
28/10:30am 18.2 17.0 11.7 66 3.6 SE 9 13 5 7 1030.6 1030.6 0.0
28/10:00am 16.3 14.5 11.0 71 2.9 SE 11 15 6 8 1031.1 1031.0 0.0
28/09:30am 15.6 14.2 11.0 74 2.5 SE 9 13 5 7 1031.2 1031.1 0.0
28/09:00am 14.1 13.0 10.5 79 1.9 SSE 7 11 4 6 1031.1 1031.0 0.0
28/08:30am 12.6 11.3 9.8 83 1.5 SSE 7 9 4 5 1030.9 1030.8 0.0
28/08:00am 11.0 10.8 8.9 87 1.1 CALM 0 6 0 3 1030.5 1030.5 0.0
28/07:30am 9.4 7.7 8.2 92 0.6 S 7 7 4 4 1030.2 1030.2 0.0
28/07:00am 8.7 8.1 7.6 93 0.5 CALM 0 0 0 0 1030.1 1030.1 0.0
28/06:30am 8.8 8.3 7.7 93 0.5 CALM 0 4 0 2 1029.6 1029.6 0.0
28/06:00am 8.0 5.8 6.0 87 0.9 SE 7 9 4 5 1029.3 1029.3 0.0

Other Formats:

Comma delimited format used in spreadsheet applications
http://www.bom.gov.au/fwo/IDQ60801/IDQ60801.94515.axf

JavaScript Object Notation format (JSON) in row-major order
http://www.bom.gov.au/fwo/IDQ60801/IDQ60801.94515.json